Hlavní strana
METAR-TAF:

METAR-TAF

Letiště :

Schwäbisch Hall, Německo

zeměpisná šířka: 49-07-06N, zeměpisná délka: 9-47-02E, výška: 398 m

Aktuální stav počasí

Zpráva byla vytvořena před 42 minutami, v 21:20 UTC
Západní vítr 5 kt, proměnlivý mezi západojihozápadním a severozápadním
Teplota 13°C
Vlhkost vzduchu 94%
Tlak 1007 hPa
Viditelnost: 6000 m

METAR: EDTY 302120Z AUTO 26005KT 240V310 6000 // FEW025/// BKN046/// OVC063/// 13/12 Q1007

Čas: 00:02 (22:02 UTC)

Předpověď počasí

Zpráva byla vytvořena před 5 hodinami a 2 minutami, v 17:00 UTC
Předpověď platná od 30 v 18 UTC do 31 v 03 UTC
Západní vítr 6 kt
Viditelnost 10 km a více
Polojasno ve výšce 4000 ft
Pravděpodobnost 40% :
Dočasný
od 30 v 20 UTC do 31 v 03 UTC
Polojasno ve výšce 1500 ft
Oblačno až skoro zataženo ve výšce 4000 ft, Vertikální cumulus.
dešťové přeháňky,

TAF: EDTY 301700Z 3018/3103 27006KT 9999 SCT040 PROB40 TEMPO 3020/3103 SHRA SCT015 BKN040TCU

Stav a předpovědi počasí z více než 4 000 letišť (zprávy METAR a TAF).

Červené a žluté tečky na mapě představují dostupné meteorologické stanice.

Když kurzor umístíte na tečku, zobrazí se název stanice.

Pak kliknutím zobrazíte stav a předpověď počasí.

Chcete-li změnit mapu, kliknutím na zelené tlačítko se znaménkem +mapu přiblížíte, kliknutím na zelené tlačítko se znaménkem – mapu oddálíte a kliknutím na zelené šipky přejdete na sousední mapy.


METAR-TAF: